Time;durP1;ratioP1;P1;durP2;ratioP2;P2;SDS_P1;SDS_P2;PMS_P1;PMS_P2;Temp;Humidity;BMP_temperature;BMP_pressure;BME280_temperature;BME280_humidity;BME280_pressure;Samples;Min_cycle;Max_cycle;Signal;HPM_P1;HPM_P2
2023/04/07 00:00:28;;;;;;;;;;;;;;;13.53;63.93;101128.09;1044546;28;772;-67
2023/04/07 00:01:20;;;;;;;;;;;;;;;13.43;64.55;101127.06;1044753;28;625;-67
2023/04/07 00:02:11;;;;;;;;;;;;;;;13.45;64.26;101129.59;1040934;28;718;-67
2023/04/07 00:03:05;;;;;;;;;;;;;;;13.49;64.25;101128.44;1041394;28;1020;-67
2023/04/07 00:03:56;;;;;;;;;;;;;;;13.41;65.11;101129.00;1044357;28;734;-67
2023/04/07 00:04:46;;;;;;;;;;;;;;;13.54;64.68;101126.28;1039919;28;613;-67
2023/04/07 00:05:36;;;;;;;;;;;;;;;13.64;64.92;101131.81;1044411;28;1086;-67
2023/04/07 00:06:27;;;;;;;;;;;;;;;13.69;64.25;101125.16;1045408;28;618;-67
2023/04/07 00:07:18;;;;;;;;;;;;;;;13.65;64.14;101130.84;1041691;28;1423;-67
2023/04/07 00:08:08;;;;;;;;;;;;;;;13.68;64.62;101134.16;1040029;28;1091;-67
2023/04/07 00:08:58;;;;;;;;;;;;;;;13.66;64.60;101133.41;1037786;28;642;-67
2023/04/07 00:09:49;;;;;;;;;;;;;;;13.74;64.64;101132.84;1037938;28;641;-67
2023/04/07 00:10:39;;;;;;;;;;;;;;;13.60;64.34;101133.03;1041890;28;625;-67
2023/04/07 00:11:30;;;;;;;;;;;;;;;13.59;64.86;101132.16;1040802;28;674;-67
2023/04/07 00:12:20;;;;;;;;;;;;;;;13.69;64.28;101130.50;1038506;28;1139;-67
2023/04/07 00:13:11;;;;;;;;;;;;;;;13.77;64.25;101129.97;1040589;28;1144;-67
2023/04/07 00:14:01;;;;;;;;;;;;;;;13.82;64.55;101128.63;1040827;28;630;-67
2023/04/07 00:14:52;;;;;;;;;;;;;;;13.72;63.96;101126.75;1041272;28;685;-67
2023/04/07 00:15:42;;;;;;;;;;;;;;;13.63;63.79;101125.59;1039554;28;1154;-67
2023/04/07 00:16:32;;;;;;;;;;;;;;;13.58;64.21;101121.56;1041315;28;719;-67
2023/04/07 00:17:23;;;;;;;;;;;;;;;13.53;63.91;101135.28;1040796;28;641;-67
2023/04/07 00:18:13;;;;;;;;;;;;;;;13.41;64.59;101131.69;1041298;28;673;-66
2023/04/07 00:19:04;;;;;;;;;;;;;;;13.34;65.21;101133.06;1041714;28;1091;-67
2023/04/07 00:19:54;;;;;;;;;;;;;;;13.34;65.30;101129.53;1041389;28;762;-67
2023/04/07 00:20:44;;;;;;;;;;;;;;;13.40;65.21;101132.66;1040522;28;1092;-66
2023/04/07 00:21:35;;;;;;;;;;;;;;;13.52;65.15;101126.38;1036910;28;772;-67
2023/04/07 00:22:25;;;;;;;;;;;;;;;13.62;64.95;101134.59;1037551;28;669;-67
2023/04/07 00:23:16;;;;;;;;;;;;;;;13.69;64.70;101132.34;1041195;28;716;-67
2023/04/07 00:24:06;;;;;;;;;;;;;;;13.73;64.57;101132.00;1039538;28;1155;-67
2023/04/07 00:24:57;;;;;;;;;;;;;;;13.64;63.69;101126.44;1037778;28;1106;-67
2023/04/07 00:25:47;;;;;;;;;;;;;;;13.44;64.38;101126.06;1041322;28;676;-68
2023/04/07 00:26:38;;;;;;;;;;;;;;;13.52;65.04;101126.38;1037324;28;1107;-67
2023/04/07 00:27:28;;;;;;;;;;;;;;;13.60;64.58;101125.00;1036295;28;696;-65
2023/04/07 00:28:19;;;;;;;;;;;;;;;13.65;65.00;101125.47;1040299;28;658;-67
2023/04/07 00:29:09;;;;;;;;;;;;;;;13.62;64.20;101128.38;1040674;28;750;-66
2023/04/07 00:30:00;;;;;;;;;;;;;;;13.61;64.30;101129.38;1040206;28;1215;-66
2023/04/07 00:30:50;;;;;;;;;;;;;;;13.71;64.29;101128.56;1041318;28;707;-66
2023/04/07 00:31:40;;;;;;;;;;;;;;;13.74;63.65;101132.84;1039702;28;749;-66
2023/04/07 00:32:31;;;;;;;;;;;;;;;13.67;64.42;101131.59;1040431;28;973;-66
2023/04/07 00:33:21;;;;;;;;;;;;;;;13.62;64.94;101128.38;1041216;28;1951;-67
2023/04/07 00:34:12;;;;;;;;;;;;;;;13.53;64.06;101135.28;1041265;28;1020;-67
2023/04/07 00:35:02;;;;;;;;;;;;;;;13.40;65.24;101131.78;1041365;28;629;-66
2023/04/07 00:35:53;;;;;;;;;;;;;;;13.40;65.37;101137.13;1041260;28;687;-67
2023/04/07 00:36:43;;;;;;;;;;;;;;;13.42;65.03;101125.34;1036076;28;615;-66
2023/04/07 00:37:34;;;;;;;;;;;;;;;13.41;64.49;101131.69;1040751;28;984;-66
2023/04/07 00:38:24;;;;;;;;;;;;;;;13.47;65.61;101130.34;1044409;28;725;-68
2023/04/07 00:39:15;;;;;;;;;;;;;;;13.44;64.17;101134.09;1041335;28;654;-67
2023/04/07 00:40:05;;;;;;;;;;;;;;;13.37;65.35;101134.69;1043965;28;713;-67
2023/04/07 00:40:55;;;;;;;;;;;;;;;13.37;65.18;101130.19;1037465;28;681;-66
2023/04/07 00:41:46;;;;;;;;;;;;;;;13.42;64.50;101129.84;1039975;28;1135;-66
2023/04/07 00:42:36;;;;;;;;;;;;;;;13.46;65.07;101132.19;1041232;28;804;-65
2023/04/07 00:43:27;;;;;;;;;;;;;;;13.50;64.92;101131.00;1039180;28;1195;-66
2023/04/07 00:44:17;;;;;;;;;;;;;;;13.48;64.72;101122.22;1037632;28;646;-66
2023/04/07 00:45:09;;;;;;;;;;;;;;;13.57;65.02;101130.56;1044245;28;1206;-66
2023/04/07 00:46:00;;;;;;;;;;;;;;;13.58;64.05;101132.28;1040934;28;728;-65
2023/04/07 00:46:50;;;;;;;;;;;;;;;13.58;64.43;101126.91;1040523;28;1159;-65
2023/04/07 00:47:41;;;;;;;;;;;;;;;13.52;64.99;101136.25;1040795;28;713;-66
2023/04/07 00:48:31;;;;;;;;;;;;;;;13.51;64.38;101131.84;1039369;28;671;-65
2023/04/07 00:49:22;;;;;;;;;;;;;;;13.57;64.75;101131.41;1040710;28;670;-66
2023/04/07 00:50:12;;;;;;;;;;;;;;;13.65;64.51;101133.53;1041198;28;612;-66
2023/04/07 00:51:02;;;;;;;;;;;;;;;13.65;64.05;101138.88;1040753;28;743;-66
2023/04/07 00:51:53;;;;;;;;;;;;;;;13.70;64.19;101139.41;1040598;28;658;-67
2023/04/07 00:52:43;;;;;;;;;;;;;;;13.52;64.54;101139.78;1039981;28;1198;-67
2023/04/07 00:53:34;;;;;;;;;;;;;;;13.45;64.98;101138.50;1041119;28;1885;-67
2023/04/07 00:54:24;;;;;;;;;;;;;;;13.47;64.19;101139.25;1041154;28;982;-67
2023/04/07 00:55:15;;;;;;;;;;;;;;;13.44;65.52;101136.78;1037638;28;865;-67
2023/04/07 00:56:05;;;;;;;;;;;;;;;13.53;65.44;101141.50;1041845;28;606;-67
2023/04/07 00:56:56;;;;;;;;;;;;;;;13.60;65.31;101139.22;1039823;28;1104;-67
2023/04/07 00:57:46;;;;;;;;;;;;;;;13.50;64.73;101136.34;1041244;28;609;-67
2023/04/07 00:58:37;;;;;;;;;;;;;;;13.61;65.28;101132.06;1037668;28;805;-67
2023/04/07 00:59:30;;;;;;;;;;;;;;;13.52;64.60;101138.91;1039907;28;1331;-67
2023/04/07 01:00:20;;;;;;;;;;;;;;;13.43;65.02;101140.47;1041155;28;1087;-67
2023/04/07 01:01:11;;;;;;;;;;;;;;;13.50;65.50;101139.03;1041216;28;734;-67
2023/04/07 01:02:02;;;;;;;;;;;;;;;13.55;64.65;101139.56;1035985;28;692;-67
2023/04/07 01:02:52;;;;;;;;;;;;;;;13.60;64.90;101147.25;1038997;28;707;-66
2023/04/07 01:03:43;;;;;;;;;;;;;;;13.64;64.50;101139.84;1041607;28;1104;-67
2023/04/07 01:04:33;;;;;;;;;;;;;;;13.65;64.83;101134.38;1041211;28;714;-67
2023/04/07 01:05:23;;;;;;;;;;;;;;;13.75;64.24;101145.28;1039883;28;1171;-67
2023/04/07 01:06:14;;;;;;;;;;;;;;;13.81;64.40;101139.47;1041207;28;771;-67
2023/04/07 01:07:05;;;;;;;;;;;;;;;13.85;63.86;101135.59;1041444;28;1194;-68
2023/04/07 01:07:55;;;;;;;;;;;;;;;13.87;64.25;101139.88;1044533;28;692;-68
2023/04/07 01:08:46;;;;;;;;;;;;;;;13.90;64.12;101142.31;1044530;28;1115;-68
2023/04/07 01:09:36;;;;;;;;;;;;;;;13.88;64.41;101146.94;1045279;28;817;-68
2023/04/07 01:10:26;;;;;;;;;;;;;;;13.88;63.85;101141.59;1041164;28;670;-68
2023/04/07 01:11:17;;;;;;;;;;;;;;;13.88;64.12;101138.91;1039894;28;623;-68
2023/04/07 01:12:07;;;;;;;;;;;;;;;13.89;64.17;101142.44;1043941;28;1344;-68
2023/04/07 01:12:58;;;;;;;;;;;;;;;13.75;64.11;101139.94;1041752;28;1167;-68
2023/04/07 01:13:48;;;;;;;;;;;;;;;13.73;63.51;101141.84;1039939;28;1981;-68
2023/04/07 01:14:39;;;;;;;;;;;;;;;13.62;65.06;101141.78;1043788;28;686;-68
2023/04/07 01:15:30;;;;;;;;;;;;;;;13.52;64.30;101141.59;1038982;28;1014;-67
2023/04/07 01:16:20;;;;;;;;;;;;;;;13.54;65.32;101137.84;1043764;28;646;-67
2023/04/07 01:17:11;;;;;;;;;;;;;;;13.64;65.13;101138.00;1041222;28;650;-67
2023/04/07 01:18:01;;;;;;;;;;;;;;;13.69;64.47;101135.00;1043306;28;646;-67
2023/04/07 01:18:52;;;;;;;;;;;;;;;13.60;64.10;101133.88;1043197;28;1195;-67
2023/04/07 01:19:42;;;;;;;;;;;;;;;13.52;64.86;101133.56;1044013;28;725;-67
2023/04/07 01:20:33;;;;;;;;;;;;;;;13.61;64.84;101132.06;1044473;28;1177;-67
2023/04/07 01:21:23;;;;;;;;;;;;;;;13.54;64.09;101131.63;1044371;28;1115;-67
2023/04/07 01:22:13;;;;;;;;;;;;;;;13.57;64.21;101136.78;1044702;28;710;-67
2023/04/07 01:23:04;;;;;;;;;;;;;;;13.59;64.87;101139.34;1044580;28;1114;-67
2023/04/07 01:23:55;;;;;;;;;;;;;;;13.50;64.93;101136.34;1044732;28;762;-67
2023/04/07 01:24:46;;;;;;;;;;;;;;;13.61;64.46;101135.59;1043911;28;1130;-67
2023/04/07 01:25:36;;;;;;;;;;;;;;;13.67;64.74;101135.13;1044017;28;800;-67
2023/04/07 01:26:26;;;;;;;;;;;;;;;13.63;64.41;101132.78;1044536;28;1154;-67
2023/04/07 01:27:17;;;;;;;;;;;;;;;13.57;64.33;101128.75;1045355;28;786;-67
2023/04/07 01:28:07;;;;;;;;;;;;;;;13.61;64.58;101132.91;1039000;28;689;-67
2023/04/07 01:28:58;;;;;;;;;;;;;;;13.49;64.42;101128.44;1043965;28;642;-67
2023/04/07 01:29:49;;;;;;;;;;;;;;;13.59;64.85;101136.66;1040171;28;662;-68
2023/04/07 01:30:40;;;;;;;;;;;;;;;13.69;64.84;101133.19;1044742;28;713;-68
2023/04/07 01:31:31;;;;;;;;;;;;;;;13.69;64.61;101137.69;1039248;28;674;-67
2023/04/07 01:32:21;;;;;;;;;;;;;;;13.69;64.68;101133.19;1042948;28;1126;-67
2023/04/07 01:33:11;;;;;;;;;;;;;;;13.77;64.04;101135.31;1044885;28;681;-67
2023/04/07 01:34:02;;;;;;;;;;;;;;;13.81;63.83;101139.47;1045397;28;662;-67
2023/04/07 01:34:52;;;;;;;;;;;;;;;13.86;64.10;101131.94;1043213;28;686;-67
2023/04/07 01:35:43;;;;;;;;;;;;;;;13.78;63.62;101131.66;1045450;28;1067;-66
2023/04/07 01:36:33;;;;;;;;;;;;;;;13.77;64.35;101130.81;1046045;28;698;-67
2023/04/07 01:37:24;;;;;;;;;;;;;;;13.79;63.96;101131.53;1044654;28;701;-66
2023/04/07 01:38:15;;;;;;;;;;;;;;;13.74;63.64;101132.84;1045139;28;665;-67
2023/04/07 01:39:05;;;;;;;;;;;;;;;13.78;64.17;101129.84;1044805;28;1106;-66
2023/04/07 01:39:56;;;;;;;;;;;;;;;13.82;64.14;101130.44;1046041;28;697;-67
2023/04/07 01:40:46;;;;;;;;;;;;;;;13.86;63.72;101142.66;1045052;28;1098;-67
2023/04/07 01:41:36;;;;;;;;;;;;;;;13.86;63.28;101137.31;1045774;28;916;-66
2023/04/07 01:42:27;;;;;;;;;;;;;;;13.82;63.90;101135.81;1045544;28;657;-66
2023/04/07 01:43:17;;;;;;;;;;;;;;;13.83;63.74;101137.53;1042441;28;1035;-66
2023/04/07 01:44:08;;;;;;;;;;;;;;;13.87;64.29;101141.69;1041987;28;701;-66
2023/04/07 01:44:58;;;;;;;;;;;;;;;13.85;64.23;101143.63;1042577;28;673;-66
2023/04/07 01:45:49;;;;;;;;;;;;;;;13.82;63.96;101141.16;1046555;28;688;-66
2023/04/07 01:46:40;;;;;;;;;;;;;;;13.73;63.80;101141.84;1044384;28;1201;-66
2023/04/07 01:47:30;;;;;;;;;;;;;;;13.78;64.13;101139.72;1045087;28;610;-66
2023/04/07 01:48:21;;;;;;;;;;;;;;;13.77;64.43;101146.88;1044349;28;1095;-65
2023/04/07 01:49:11;;;;;;;;;;;;;;;13.78;64.73;101145.06;1046035;28;681;-66
2023/04/07 01:50:04;;;;;;;;;;;;;;;13.83;64.37;101141.06;1045401;28;1150;-66
2023/04/07 01:50:54;;;;;;;;;;;;;;;13.78;63.78;101148.59;1045415;28;712;-66
2023/04/07 01:51:49;;;;;;;;;;;;;;;13.77;64.73;101148.72;1044840;28;1165;-65
2023/04/07 01:52:39;;;;;;;;;;;;;;;13.79;64.38;101141.41;1046101;28;953;-66
2023/04/07 01:53:30;;;;;;;;;;;;;;;13.82;64.03;101144.69;1045195;28;1890;-66
2023/04/07 01:54:20;;;;;;;;;;;;;;;13.87;64.62;101150.59;1045220;28;952;-66
2023/04/07 01:55:10;;;;;;;;;;;;;;;13.80;63.69;101151.13;1045971;28;745;-68
2023/04/07 01:56:01;;;;;;;;;;;;;;;13.70;63.62;101148.28;1045537;28;768;-66
2023/04/07 01:56:51;;;;;;;;;;;;;;;13.54;64.49;101143.19;1041832;28;638;-66
2023/04/07 01:57:42;;;;;;;;;;;;;;;13.64;65.07;101145.19;1040801;28;626;-66
2023/04/07 01:58:32;;;;;;;;;;;;;;;13.72;64.53;101148.19;1041256;28;675;-66
2023/04/07 01:59:23;;;;;;;;;;;;;;;13.77;64.83;101154.91;1044953;28;1167;-66
2023/04/07 02:00:13;;;;;;;;;;;;;;;13.86;64.47;101153.38;1046052;28;686;-66
2023/04/07 02:01:04;;;;;;;;;;;;;;;13.86;63.63;101148.88;1042342;28;1015;-66
2023/04/07 02:01:54;;;;;;;;;;;;;;;13.89;64.18;101150.47;1041916;28;775;-67
2023/04/07 02:02:45;;;;;;;;;;;;;;;13.87;63.82;101149.72;1041770;28;1074;-67
2023/04/07 02:03:35;;;;;;;;;;;;;;;13.85;63.99;101140.94;1041039;28;639;-66
2023/04/07 02:04:26;;;;;;;;;;;;;;;13.89;64.17;101154.00;1045312;28;1142;-66
2023/04/07 02:05:16;;;;;;;;;;;;;;;13.92;64.32;101152.06;1045928;28;714;-66
2023/04/07 02:06:07;;;;;;;;;;;;;;;13.93;63.79;101143.06;1045476;28;622;-67
2023/04/07 02:06:57;;;;;;;;;;;;;;;13.95;63.85;101151.84;1043432;28;1055;-68
2023/04/07 02:07:47;;;;;;;;;;;;;;;13.95;64.03;101155.38;1045543;28;725;-67
2023/04/07 02:08:38;;;;;;;;;;;;;;;13.93;63.84;101143.94;1044752;28;716;-67
2023/04/07 02:09:28;;;;;;;;;;;;;;;13.85;63.49;101148.97;1045109;28;1051;-67
2023/04/07 02:10:19;;;;;;;;;;;;;;;13.82;63.54;101141.16;1045956;28;804;-67
2023/04/07 02:11:09;;;;;;;;;;;;;;;13.85;63.87;101147.16;1041837;28;860;-67
2023/04/07 02:12:00;;;;;;;;;;;;;;;13.90;63.68;101150.38;1044305;28;747;-67
2023/04/07 02:12:50;;;;;;;;;;;;;;;13.85;63.64;101148.97;1042573;28;1045;-67
2023/04/07 02:13:41;;;;;;;;;;;;;;;13.85;64.29;101143.63;1042327;28;1966;-67
2023/04/07 02:14:31;;;;;;;;;;;;;;;13.92;64.16;101147.56;1041195;28;720;-66
2023/04/07 02:15:21;;;;;;;;;;;;;;;13.91;63.78;101148.53;1043867;28;709;-66
2023/04/07 02:16:12;;;;;;;;;;;;;;;13.89;64.02;101145.13;1040492;28;654;-66
2023/04/07 02:17:02;;;;;;;;;;;;;;;13.87;64.20;101147.91;1044763;28;674;-66
2023/04/07 02:17:53;;;;;;;;;;;;;;;13.84;63.99;101148.13;1041281;28;642;-66
2023/04/07 02:18:43;;;;;;;;;;;;;;;13.78;63.74;101143.25;1041285;28;736;-67
2023/04/07 02:19:34;;;;;;;;;;;;;;;13.72;64.67;101140.16;1041233;28;1056;-66
2023/04/07 02:20:25;;;;;;;;;;;;;;;13.73;64.19;101145.41;1044382;28;654;-66
2023/04/07 02:21:15;;;;;;;;;;;;;;;13.60;64.54;101146.41;1045281;28;724;-66
2023/04/07 02:22:06;;;;;;;;;;;;;;;13.68;64.28;101144.00;1041322;28;677;-67
2023/04/07 02:22:56;;;;;;;;;;;;;;;13.80;64.01;101148.47;1042297;28;717;-66
2023/04/07 02:23:47;;;;;;;;;;;;;;;13.85;63.92;101148.97;1044274;28;685;-67
2023/04/07 02:24:37;;;;;;;;;;;;;;;13.86;63.83;101146.19;1045656;28;1083;-67
2023/04/07 02:25:27;;;;;;;;;;;;;;;13.93;63.29;101148.44;1044835;28;610;-68
2023/04/07 02:26:18;;;;;;;;;;;;;;;13.93;63.98;101145.75;1044688;28;1038;-68
2023/04/07 02:27:08;;;;;;;;;;;;;;;13.93;64.01;101157.31;1045889;28;665;-68
2023/04/07 02:27:59;;;;;;;;;;;;;;;13.95;63.91;101154.53;1045332;28;673;-67
2023/04/07 02:28:49;;;;;;;;;;;;;;;13.84;63.38;101152.63;1045269;28;638;-68
2023/04/07 02:29:40;;;;;;;;;;;;;;;13.76;63.80;101147.00;1045363;28;642;-68
2023/04/07 02:30:30;;;;;;;;;;;;;;;13.77;64.28;101151.38;1045254;28;642;-68
2023/04/07 02:31:21;;;;;;;;;;;;;;;13.79;63.87;101157.50;1045198;28;1166;-67
2023/04/07 02:32:11;;;;;;;;;;;;;;;13.74;64.32;101151.59;1045963;28;680;-67
2023/04/07 02:33:02;;;;;;;;;;;;;;;13.78;64.07;101150.41;1042124;28;1097;-67
2023/04/07 02:33:52;;;;;;;;;;;;;;;13.85;64.35;101157.03;1041656;28;1898;-67
2023/04/07 02:34:42;;;;;;;;;;;;;;;13.84;63.66;101145.44;1045569;28;1035;-66
2023/04/07 02:35:33;;;;;;;;;;;;;;;13.87;63.27;101152.41;1045879;28;626;-67
2023/04/07 02:36:23;;;;;;;;;;;;;;;13.80;63.75;101151.13;1045940;28;1071;-66
2023/04/07 02:37:14;;;;;;;;;;;;;;;13.83;63.79;101149.09;1045029;28;726;-66
2023/04/07 02:38:04;;;;;;;;;;;;;;;13.89;63.46;101148.66;1041873;28;725;-67
2023/04/07 02:38:55;;;;;;;;;;;;;;;13.87;63.69;101149.72;1042510;28;658;-67
2023/04/07 02:39:45;;;;;;;;;;;;;;;13.79;63.61;101146.78;1041765;28;656;-67
2023/04/07 02:40:36;;;;;;;;;;;;;;;13.78;64.43;101153.09;1042213;28;740;-67
2023/04/07 02:41:27;;;;;;;;;;;;;;;13.76;63.66;101153.22;1041562;28;685;-67
2023/04/07 02:42:17;;;;;;;;;;;;;;;13.67;63.50;101153.88;1042997;28;713;-67
2023/04/07 02:43:07;;;;;;;;;;;;;;;13.65;64.91;101147.75;1041867;28;645;-67
2023/04/07 02:43:58;;;;;;;;;;;;;;;13.75;63.95;101151.50;1047977;28;972;-67
2023/04/07 02:44:48;;;;;;;;;;;;;;;13.78;64.28;101151.28;1046477;28;1134;-67
2023/04/07 02:45:39;;;;;;;;;;;;;;;13.82;63.79;101151.88;1041667;28;739;-67
2023/04/07 02:46:29;;;;;;;;;;;;;;;13.80;64.14;101148.47;1043364;28;1162;-67
2023/04/07 02:47:20;;;;;;;;;;;;;;;13.81;64.11;101156.38;1042282;28;645;-67
2023/04/07 02:48:10;;;;;;;;;;;;;;;13.82;63.66;101152.75;1041722;28;904;-67
2023/04/07 02:49:00;;;;;;;;;;;;;;;13.83;63.65;101150.91;1041430;28;873;-67
2023/04/07 02:49:51;;;;;;;;;;;;;;;13.82;64.08;101151.88;1042045;28;707;-68
2023/04/07 02:50:41;;;;;;;;;;;;;;;13.77;63.93;101149.56;1045152;28;1191;-67
2023/04/07 02:51:32;;;;;;;;;;;;;;;13.75;63.94;101147.97;1044448;28;713;-67
2023/04/07 02:52:22;;;;;;;;;;;;;;;13.65;63.55;101147.75;1044732;28;1090;-67
2023/04/07 02:53:13;;;;;;;;;;;;;;;13.63;63.83;101151.50;1044757;28;799;-67
2023/04/07 02:54:03;;;;;;;;;;;;;;;13.60;64.28;101155.31;1041869;28;654;-66
2023/04/07 02:54:54;;;;;;;;;;;;;;;13.63;63.83;101146.16;1041208;28;1015;-66
2023/04/07 02:55:44;;;;;;;;;;;;;;;13.47;64.50;101152.63;1045882;28;658;-67
2023/04/07 02:56:35;;;;;;;;;;;;;;;13.48;64.30;101149.00;1045775;28;689;-67
2023/04/07 02:57:25;;;;;;;;;;;;;;;13.34;64.43;101150.94;1044981;28;1197;-67
2023/04/07 02:58:16;;;;;;;;;;;;;;;13.41;65.00;101146.88;1045816;28;776;-66
2023/04/07 02:59:06;;;;;;;;;;;;;;;13.48;64.91;101143.63;1041751;28;708;-66
2023/04/07 02:59:57;;;;;;;;;;;;;;;13.62;64.64;101144.44;1043633;28;722;-66
2023/04/07 03:00:47;;;;;;;;;;;;;;;13.68;64.32;101146.69;1041705;28;740;-67
2023/04/07 03:01:39;;;;;;;;;;;;;;;13.54;64.24;101142.34;1044109;28;707;-66
2023/04/07 03:02:29;;;;;;;;;;;;;;;13.59;64.78;101144.69;1040432;28;666;-66
2023/04/07 03:03:20;;;;;;;;;;;;;;;13.67;64.97;101142.28;1040548;28;775;-66
2023/04/07 03:04:11;;;;;;;;;;;;;;;13.72;63.86;101142.81;1041525;28;1244;-66
2023/04/07 03:05:03;;;;;;;;;;;;;;;13.62;64.57;101145.31;1041071;28;701;-66
2023/04/07 03:05:53;;;;;;;;;;;;;;;13.52;64.56;101142.44;1039672;28;1122;-66
2023/04/07 03:06:44;;;;;;;;;;;;;;;13.63;65.02;101146.16;1041635;28;709;-66
2023/04/07 03:07:34;;;;;;;;;;;;;;;13.71;64.22;101146.47;1040504;28;1123;-66
2023/04/07 03:08:24;;;;;;;;;;;;;;;13.69;64.09;101143.03;1041565;28;630;-66
2023/04/07 03:09:15;;;;;;;;;;;;;;;13.63;63.84;101140.81;1041717;28;1167;-66
2023/04/07 03:10:05;;;;;;;;;;;;;;;13.53;63.43;101144.16;1045162;28;693;-66
2023/04/07 03:10:56;;;;;;;;;;;;;;;13.54;64.83;101142.34;1044499;28;1214;-67
2023/04/07 03:11:46;;;;;;;;;;;;;;;13.57;64.30;101151.97;1044095;28;1067;-67
2023/04/07 03:12:37;;;;;;;;;;;;;;;13.44;64.82;101142.13;1044915;28;833;-67
2023/04/07 03:13:28;;;;;;;;;;;;;;;13.44;64.51;101142.13;1040522;28;947;-67
2023/04/07 03:14:19;;;;;;;;;;;;;;;13.36;64.29;101139.19;1043596;28;952;-67
2023/04/07 03:15:10;;;;;;;;;;;;;;;13.45;65.20;101140.31;1045225;28;685;-66
2023/04/07 03:16:00;;;;;;;;;;;;;;;13.44;64.47;101142.13;1044898;28;1074;-66
2023/04/07 03:16:50;;;;;;;;;;;;;;;13.53;65.26;101141.50;1041539;28;677;-66
2023/04/07 03:17:41;;;;;;;;;;;;;;;13.58;64.56;101148.34;1045011;28;996;-66
2023/04/07 03:18:31;;;;;;;;;;;;;;;13.48;64.58;101140.97;1045657;28;705;-66
2023/04/07 03:19:22;;;;;;;;;;;;;;;13.37;64.97;101140.88;1042037;28;1137;-66
2023/04/07 03:20:12;;;;;;;;;;;;;;;13.37;65.41;101151.59;1040575;28;664;-67
2023/04/07 03:21:03;;;;;;;;;;;;;;;13.43;65.54;101142.28;1044428;28;819;-67
2023/04/07 03:21:53;;;;;;;;;;;;;;;13.53;65.14;101138.81;1040441;28;693;-67
2023/04/07 03:22:46;;;;;;;;;;;;;;;13.50;64.41;101147.06;1040906;28;1102;-67
2023/04/07 03:23:36;;;;;;;;;;;;;;;13.58;64.83;101141.16;1040656;28;638;-67
2023/04/07 03:24:26;;;;;;;;;;;;;;;13.59;65.08;101142.03;1045293;28;646;-67
2023/04/07 03:25:17;;;;;;;;;;;;;;;13.57;64.62;101144.81;1042589;28;681;-67
2023/04/07 03:26:07;;;;;;;;;;;;;;;13.63;64.52;101135.44;1045116;28;1075;-67
2023/04/07 03:26:58;;;;;;;;;;;;;;;13.62;64.37;101144.44;1044175;28;697;-67
2023/04/07 03:27:48;;;;;;;;;;;;;;;13.50;64.08;101143.53;1044916;28;1095;-67
2023/04/07 03:28:39;;;;;;;;;;;;;;;13.47;64.38;101141.91;1044885;28;722;-67
2023/04/07 03:29:29;;;;;;;;;;;;;;;13.48;64.94;101146.31;1040349;28;702;-67
2023/04/07 03:30:20;;;;;;;;;;;;;;;13.52;65.14;101145.13;1044398;28;811;-67
2023/04/07 03:31:10;;;;;;;;;;;;;;;13.61;64.46;101145.44;1040543;28;712;-67
2023/04/07 03:32:01;;;;;;;;;;;;;;;13.56;64.43;101140.41;1049432;28;698;-67
2023/04/07 03:32:51;;;;;;;;;;;;;;;13.50;64.64;101139.03;1044780;28;677;-67
2023/04/07 03:33:42;;;;;;;;;;;;;;;13.43;64.55;101145.81;1044105;28;1898;-66
2023/04/07 03:34:32;;;;;;;;;;;;;;;13.35;64.94;101153.53;1045417;28;1165;-66
2023/04/07 03:35:23;;;;;;;;;;;;;;;13.49;64.80;101148.03;1045668;28;626;-66
2023/04/07 03:36:13;;;;;;;;;;;;;;;13.61;65.28;101154.34;1045506;28;1155;-66
2023/04/07 03:37:03;;;;;;;;;;;;;;;13.56;64.71;101156.47;1042026;28;784;-66
2023/04/07 03:37:54;;;;;;;;;;;;;;;13.62;64.19;101150.66;1040386;28;1103;-67
2023/04/07 03:38:44;;;;;;;;;;;;;;;13.47;64.22;101152.63;1041044;28;626;-67
2023/04/07 03:39:36;;;;;;;;;;;;;;;13.52;64.84;101147.81;1040460;28;1102;-67
2023/04/07 03:40:26;;;;;;;;;;;;;;;13.58;64.18;101149.19;1041743;28;1099;-67
2023/04/07 03:41:17;;;;;;;;;;;;;;;13.50;64.93;101149.75;1045470;28;634;-67
2023/04/07 03:42:07;;;;;;;;;;;;;;;13.53;65.05;101144.16;1041552;28;704;-67
2023/04/07 03:42:58;;;;;;;;;;;;;;;13.54;64.57;101147.69;1041792;28;763;-67
2023/04/07 03:43:48;;;;;;;;;;;;;;;13.61;64.44;101150.81;1040263;28;689;-67
2023/04/07 03:44:39;;;;;;;;;;;;;;;13.60;64.61;101151.75;1044220;28;1121;-67
2023/04/07 03:45:29;;;;;;;;;;;;;;;13.64;64.49;101151.41;1044754;28;1137;-67
2023/04/07 03:46:20;;;;;;;;;;;;;;;13.63;64.21;101154.19;1045466;28;740;-67
2023/04/07 03:47:10;;;;;;;;;;;;;;;13.64;64.19;101148.72;1043583;28;1138;-67
2023/04/07 03:48:01;;;;;;;;;;;;;;;13.68;63.95;101150.22;1045828;28;718;-67
2023/04/07 03:48:51;;;;;;;;;;;;;;;13.71;64.43;101154.50;1044511;28;1135;-67
2023/04/07 03:49:41;;;;;;;;;;;;;;;13.76;64.19;101155.03;1048176;28;871;-67
2023/04/07 03:50:32;;;;;;;;;;;;;;;13.80;64.14;101157.34;1048435;28;831;-68
2023/04/07 03:51:22;;;;;;;;;;;;;;;13.84;63.69;101152.63;1044490;28;686;-68
2023/04/07 03:52:14;;;;;;;;;;;;;;;13.86;63.50;101156.06;1045084;28;803;-68
2023/04/07 03:53:04;;;;;;;;;;;;;;;13.87;63.70;101155.09;1043663;28;863;-66
2023/04/07 03:53:55;;;;;;;;;;;;;;;13.88;63.98;101151.44;1043990;28;1957;-66
2023/04/07 03:54:45;;;;;;;;;;;;;;;13.83;63.89;101156.28;1045048;28;693;-66
2023/04/07 03:55:36;;;;;;;;;;;;;;;13.78;63.71;101153.09;1040622;28;716;-67
2023/04/07 03:56:26;;;;;;;;;;;;;;;13.72;64.44;101153.53;1044562;28;1082;-67
2023/04/07 03:57:17;;;;;;;;;;;;;;;13.76;64.17;101155.03;1045130;28;744;-67
2023/04/07 03:58:07;;;;;;;;;;;;;;;13.80;64.00;101156.50;1044139;28;1106;-66
2023/04/07 03:58:58;;;;;;;;;;;;;;;13.81;63.65;101156.38;1045592;28;684;-66
2023/04/07 03:59:50;;;;;;;;;;;;;;;13.82;63.51;101157.25;1044435;28;654;-66
2023/04/07 04:00:40;;;;;;;;;;;;;;;13.81;64.12;101160.88;1042547;28;645;-66
2023/04/07 04:01:30;;;;;;;;;;;;;;;13.78;63.10;101158.47;1044773;28;1095;-66
2023/04/07 04:02:21;;;;;;;;;;;;;;;13.72;64.28;101166.94;1045610;28;776;-66
2023/04/07 04:03:11;;;;;;;;;;;;;;;13.68;64.29;101158.25;1044979;28;629;-66
2023/04/07 04:04:02;;;;;;;;;;;;;;;13.71;63.98;101157.19;1044863;28;733;-66
2023/04/07 04:04:52;;;;;;;;;;;;;;;13.71;63.87;101166.06;1044285;28;634;-65
2023/04/07 04:05:43;;;;;;;;;;;;;;;13.58;64.46;101164.41;1044240;28;1086;-67
2023/04/07 04:06:33;;;;;;;;;;;;;;;13.44;64.17;101160.03;1045471;28;703;-65
2023/04/07 04:07:25;;;;;;;;;;;;;;;13.54;64.72;101159.25;1040876;28;673;-66
2023/04/07 04:08:15;;;;;;;;;;;;;;;13.62;64.64;101163.19;1040355;28;1111;-66
2023/04/07 04:09:06;;;;;;;;;;;;;;;13.63;64.17;101162.22;1042057;28;626;-66
2023/04/07 04:09:56;;;;;;;;;;;;;;;13.66;64.11;101164.69;1040273;28;1079;-66
2023/04/07 04:10:46;;;;;;;;;;;;;;;13.71;64.27;101165.22;1041431;28;681;-66
2023/04/07 04:11:37;;;;;;;;;;;;;;;13.65;64.17;101177.22;1040288;28;748;-66
2023/04/07 04:12:27;;;;;;;;;;;;;;;13.58;64.35;101165.25;1040741;28;642;-66
2023/04/07 04:13:18;;;;;;;;;;;;;;;13.59;65.02;101166.13;1040965;28;634;-66
2023/04/07 04:14:08;;;;;;;;;;;;;;;13.50;63.71;101171.16;1041012;28;704;-66
2023/04/07 04:14:59;;;;;;;;;;;;;;;13.34;64.49;101165.19;1041599;28;742;-66
2023/04/07 04:15:49;;;;;;;;;;;;;;;13.39;64.63;101171.09;1040926;28;677;-66
2023/04/07 04:16:39;;;;;;;;;;;;;;;13.43;64.56;101175.25;1042727;28;658;-66
2023/04/07 04:17:30;;;;;;;;;;;;;;;13.36;64.00;101171.28;1039818;28;698;-65
2023/04/07 04:18:20;;;;;;;;;;;;;;;13.28;64.62;101165.63;1043168;28;948;-67
2023/04/07 04:19:11;;;;;;;;;;;;;;;13.34;64.95;101162.50;1045493;28;668;-67
2023/04/07 04:20:01;;;;;;;;;;;;;;;13.40;64.95;101169.25;1045466;28;765;-66
2023/04/07 04:20:52;;;;;;;;;;;;;;;13.33;65.52;101165.28;1041365;28;602;-67
2023/04/07 04:21:42;;;;;;;;;;;;;;;13.40;65.07;101170.13;1043820;28;1050;-66
2023/04/07 04:22:32;;;;;;;;;;;;;;;13.48;65.32;101166.88;1044886;28;626;-67
2023/04/07 04:23:23;;;;;;;;;;;;;;;13.54;65.07;101166.44;1041774;28;1090;-67
2023/04/07 04:24:13;;;;;;;;;;;;;;;13.60;64.54;101165.16;1041269;28;641;-66
2023/04/07 04:25:04;;;;;;;;;;;;;;;13.63;64.15;101167.59;1041327;28;641;-66